Have a Safe July 4th! 

Flight Track Log - Related Links

Times and Time Zones

All times are in EDT time to prevent confusion due to time zone crossing. See the AWE194 flight status page for this flight to view local times or setup timezone preferences in your user account.

Time Position Orientation Groundspeed Altitude Reporting Facility
EDT Latitude Longitude Course Direction KTS MPH feet Rate Location/Type
Sun 10:07:36 PM 44.8780 -93.1860 North 1,400  Level FlightAware ADS-B
Sun 10:08:31 PM 44.8490 -93.1250 124° Southeast 229 264 3,300 2,304 Climbing FlightAware ADS-B
Sun 10:09:41 PM 44.7850 -93.1280 182° South 273 314 6,200 2,504 Climbing FlightAware ADS-B
Sun 10:10:26 PM 44.7580 -93.2080 245° Southwest 303 349 8,100 2,640 Climbing FlightAware ADS-B
Sun 10:10:56 PM 44.7400 -93.2600 244° Southwest 309 356 9,500 2,486 Climbing FlightAware ADS-B
Sun 10:11:36 PM 44.7130 -93.3370 244° Southwest 332 382 11,000 1,875 Climbing FlightAware ADS-B
Sun 10:12:32 PM 44.6730 -93.4500 244° Southwest 376 433 12,500 1,860 Climbing FlightAware ADS-B
Sun 10:13:16 PM 44.6400 -93.5430 244° Southwest 390 449 14,100 2,333 Climbing FlightAware ADS-B
Sun 10:14:02 PM 44.6000 -93.6550 243° Southwest 396 456 16,000 2,302 Climbing FlightAware ADS-B
Sun 10:14:42 PM 44.5660 -93.7520 244° Southwest 409 471 17,400 1,867 Climbing FlightAware ADS-B
Sun 10:15:32 PM 44.5350 -93.8390 243° Southwest 413 475 18,800 2,110 Climbing FlightAware ADS-B
Sun 10:16:13 PM 44.4890 -93.9680 243° Southwest 420 483 20,600 1,390 Climbing FlightAware ADS-B
Sun 10:16:54 PM 44.4570 -94.0540 242° Southwest 420 483 20,700 1,013 Climbing FlightAware ADS-B
Sun 10:17:30 PM 44.4230 -94.1500 244° Southwest 430 495 21,900 857 Climbing FlightAware ADS-B
Sun 10:18:18 PM 44.3860 -94.2510 243° Southwest 430 495 21,900  Level FlightAware ADS-B
Sun 10:19:18 PM 44.3400 -94.3780 243° Southwest 430 495 21,900  Level FlightAware ADS-B
Sun 10:19:54 PM 44.3120 -94.4530 242° Southwest 430 495 21,900  Level FlightAware ADS-B
Sun 10:20:42 PM 44.2750 -94.5540 243° Southwest 430 495 21,900 3,333 Level FlightAware ADS-B
Sun 10:21:51 PM 44.0972 -94.7608 243° Southwest 464 534 28,400 1,829 Climbing Minneapolis Center
Sun 10:27:42 PM 43.6319 -95.6257 243° Southwest 463 533 34,700 1,034 Climbing FlightAware ADS-B
Sun 10:28:14 PM 43.6017 -95.7082 243° Southwest 463 533 35,000 563 Climbing FlightAware ADS-B
Sun 10:28:46 PM 43.5704 -95.7946 243° Southwest 466 536 35,300 571 Climbing FlightAware ADS-B
Sun 10:29:17 PM 43.5408 -95.8767 244° Southwest 467 537 35,600 689 Climbing FlightAware ADS-B
Sun 10:29:47 PM 43.5116 -95.9569 243° Southwest 466 536 36,000 393 Climbing FlightAware ADS-B
Sun 10:30:18 PM 43.4815 -96.0395 243° Southwest 465 535 36,000  Level FlightAware ADS-B
Sun 10:30:48 PM 43.4525 -96.1191 243° Southwest 466 536 36,000  Level FlightAware ADS-B
Sun 10:31:19 PM 43.4230 -96.1999 243° Southwest 463 533 36,000  Level FlightAware ADS-B
Sun 10:31:50 PM 43.3937 -96.2797 243° Southwest 465 535 36,000  Level FlightAware ADS-B
Sun 10:32:20 PM 43.3639 -96.3604 243° Southwest 466 536 36,000  Level FlightAware ADS-B
Sun 10:32:53 PM 43.3318 -96.4472 243° Southwest 469 540 36,000  Level FlightAware ADS-B
Sun 10:33:32 PM 43.2937 -96.5502 243° Southwest 470 541 36,000  Level FlightAware ADS-B
Sun 10:34:02 PM 43.2637 -96.6310 243° Southwest 470 541 36,000  Level FlightAware ADS-B
Sun 10:34:32 PM 43.2340 -96.7106 243° Southwest 470 541 36,000  Level FlightAware ADS-B
Sun 10:35:02 PM 43.2042 -96.7904 243° Southwest 469 540 36,000  Level FlightAware ADS-B
Sun 10:35:36 PM 43.1704 -96.8805 243° Southwest 468 539 36,000  Level FlightAware ADS-B
Sun 10:36:07 PM 43.1403 -96.9605 243° Southwest 468 539 36,000  Level FlightAware ADS-B
Sun 10:36:37 PM 43.1105 -97.0396 243° Southwest 468 539 36,000  Level FlightAware ADS-B
Sun 10:37:07 PM 43.0804 -97.1191 243° Southwest 468 539 36,000  Level FlightAware ADS-B
Sun 10:37:44 PM 43.0435 -97.2168 243° Southwest 468 539 36,000  Level FlightAware ADS-B
Sun 10:38:15 PM 43.0127 -97.2978 243° Southwest 468 539 36,000  Level FlightAware ADS-B
Sun 10:38:45 PM 42.9827 -97.3764 242° Southwest 467 537 36,000  Level FlightAware ADS-B
Sun 10:39:16 PM 42.9519 -97.4570 242° Southwest 467 537 36,000  Level FlightAware ADS-B
Sun 10:39:46 PM 42.9217 -97.5357 242° Southwest 466 536 36,000  Level FlightAware ADS-B
Sun 10:40:16 PM 42.8917 -97.6135 242° Southwest 466 536 36,000  Level FlightAware ADS-B
Sun 10:40:48 PM 42.8600 -97.6957 242° Southwest 464 534 36,000  Level FlightAware ADS-B
Sun 10:41:19 PM 42.8295 -97.7746 242° Southwest 464 534 36,000  Level FlightAware ADS-B
Sun 10:41:50 PM 42.7984 -97.8548 242° Southwest 465 535 36,000  Level FlightAware ADS-B
Sun 10:42:30 PM 42.7577 -97.9593 242° Southwest 465 535 36,000  Level FlightAware ADS-B
Sun 10:43:39 PM 42.6882 -98.1371 242° Southwest 464 534 36,000  Level FlightAware ADS-B
Sun 10:44:12 PM 42.6552 -98.2210 242° Southwest 463 533 36,000  Level FlightAware ADS-B
Sun 10:44:44 PM 42.6227 -98.3032 242° Southwest 465 535 36,000  Level FlightAware ADS-B
Sun 10:45:14 PM 42.5923 -98.3805 242° Southwest 465 535 36,000  Level FlightAware ADS-B
Sun 10:45:44 PM 42.5612 -98.4591 242° Southwest 466 536 36,000  Level FlightAware ADS-B
Sun 10:46:16 PM 42.5290 -98.5401 242° Southwest 467 537 36,000  Level FlightAware ADS-B
Sun 10:46:46 PM 42.4979 -98.6173 241° Southwest 469 540 36,000  Level FlightAware ADS-B
Sun 10:47:04 PM 42.4775 -98.6617 238° Southwest 474 545 36,000  Level FlightAware ADS-B
Sun 10:47:17 PM 42.4604 -98.6949 235° Southwest 477 549 36,000  Level FlightAware ADS-B
Sun 10:47:30 PM 42.4423 -98.7265 232° Southwest 481 554 36,000  Level FlightAware ADS-B
Sun 10:48:01 PM 42.3978 -98.7952 229° Southwest 485 558 36,000  Level FlightAware ADS-B
Sun 10:48:32 PM 42.3514 -98.8647 228° Southwest 484 557 36,000 98 Level FlightAware ADS-B
Sun 10:49:02 PM 42.3053 -98.9336 228° Southwest 482 555 36,100  Climbing FlightAware ADS-B
Sun 10:49:32 PM 42.2603 -99.0004 228° Southwest 481 554 36,000 -98 Descending FlightAware ADS-B
Sun 10:50:03 PM 42.2154 -99.0672 228° Southwest 479 551 36,000  Level FlightAware ADS-B
Sun 10:50:33 PM 42.1706 -99.1333 228° Southwest 478 550 36,000  Level FlightAware ADS-B
Sun 10:51:03 PM 42.1259 -99.1994 228° Southwest 477 549 36,000  Level FlightAware ADS-B
Sun 10:51:33 PM 42.0811 -99.2654 228° Southwest 476 548 36,000  Level FlightAware ADS-B
Sun 10:52:26 PM 42.0015 -99.3825 228° Southwest 476 548 36,000  Level FlightAware ADS-B
Sun 10:52:57 PM 41.9555 -99.4497 227° Southwest 476 548 36,000  Level FlightAware ADS-B
Sun 10:53:28 PM 41.9097 -99.5168 227° Southwest 476 548 36,000  Level FlightAware ADS-B
Sun 10:53:59 PM 41.8643 -99.5830 227° Southwest 476 548 36,000  Level FlightAware ADS-B
Sun 10:54:29 PM 41.8193 -99.6486 227° Southwest 476 548 36,000  Level FlightAware ADS-B
Sun 10:55:00 PM 41.7732 -99.7154 227° Southwest 476 548 36,000  Level FlightAware ADS-B
Sun 10:55:37 PM 41.7182 -99.7948 227° Southwest 475 547 36,000  Level FlightAware ADS-B
Sun 10:56:10 PM 41.6678 -99.8675 227° Southwest 474 545 36,000  Level FlightAware ADS-B
Sun 10:56:40 PM 41.6230 -99.9322 227° Southwest 474 545 36,000  Level FlightAware ADS-B
Sun 10:57:11 PM 41.5769 -99.9984 227° Southwest 474 545 36,000  Level FlightAware ADS-B
Sun 10:58:05 PM 41.5017 -100.1067 227° Southwest 476 548 36,000  Level Denver Center
Sun 10:59:07 PM 41.4161 -100.2281 227° Southwest 474 545 36,000  Level Denver Center
Sun 11:05:09 PM 40.8702 -101.0120 227° Southwest 466 536 36,000  Level FlightAware ADS-B
Sun 11:05:40 PM 40.8259 -101.0770 228° Southwest 464 534 36,000  Level FlightAware ADS-B
Sun 11:06:10 PM 40.7827 -101.1410 228° Southwest 462 532 36,000  Level FlightAware ADS-B
Sun 11:06:42 PM 40.7375 -101.2070 228° Southwest 463 533 36,000  Level FlightAware ADS-B
Sun 11:07:12 PM 40.6936 -101.2720 228° Southwest 464 534 36,000  Level FlightAware ADS-B
Sun 11:07:43 PM 40.6496 -101.3360 228° Southwest 465 535 36,000  Level FlightAware ADS-B
Sun 11:08:14 PM 40.6053 -101.4010 228° Southwest 464 534 36,000  Level FlightAware ADS-B
Sun 11:08:45 PM 40.5605 -101.4660 228° Southwest 464 534 36,000  Level FlightAware ADS-B
Sun 11:09:16 PM 40.5164 -101.5300 228° Southwest 464 534 36,000  Level FlightAware ADS-B
Sun 11:09:46 PM 40.4728 -101.5930 228° Southwest 464 534 36,000  Level FlightAware ADS-B
Sun 11:10:16 PM 40.4298 -101.6560 228° Southwest 462 532 36,000  Level FlightAware ADS-B
Sun 11:10:48 PM 40.3845 -101.7210 228° Southwest 461 531 36,000  Level FlightAware ADS-B
Sun 11:11:18 PM 40.3413 -101.7830 228° Southwest 461 531 36,000  Level FlightAware ADS-B
Sun 11:11:49 PM 40.2966 -101.8480 228° Southwest 462 532 36,000  Level FlightAware ADS-B
Sun 11:12:20 PM 40.2511 -101.9130 227° Southwest 462 532 36,000  Level FlightAware ADS-B
Sun 11:12:50 PM 40.2079 -101.9750 228° Southwest 461 531 36,000  Level FlightAware ADS-B
Sun 11:13:25 PM 40.1580 -102.0460 227° Southwest 462 532 36,000  Level FlightAware ADS-B
Sun 11:13:56 PM 40.1132 -102.1100 228° Southwest 462 532 36,000  Level FlightAware ADS-B
Sun 11:14:26 PM 40.0699 -102.1720 228° Southwest 461 531 36,000  Level FlightAware ADS-B
Sun 11:14:56 PM 40.0263 -102.2340 227° Southwest 463 533 36,000  Level FlightAware ADS-B
Sun 11:15:26 PM 39.9826 -102.2950 227° Southwest 464 534 36,000  Level FlightAware ADS-B
Sun 11:15:57 PM 39.9382 -102.3580 227° Southwest 465 535 36,000  Level FlightAware ADS-B
Sun 11:16:27 PM 39.8940 -102.4210 228° Southwest 465 535 36,000  Level FlightAware ADS-B
Sun 11:16:57 PM 39.8501 -102.4830 227° Southwest 465 535 36,000  Level FlightAware ADS-B
Sun 11:17:28 PM 39.8061 -102.5440 227° Southwest 463 533 36,000  Level FlightAware ADS-B
Sun 11:17:54 PM 39.7679 -102.5980 227° Southwest 463 533 36,000  Level FlightAware ADS-B
Sun 11:18:10 PM 39.7409 -102.6280 221° Southwest 469 540 36,000  Level FlightAware ADS-B
Sun 11:18:40 PM 39.6860 -102.6740 213° Southwest 470 541 36,000  Level FlightAware ADS-B
Sun 11:19:11 PM 39.6302 -102.7210 213° Southwest 468 539 36,000  Level FlightAware ADS-B
Sun 11:19:41 PM 39.5752 -102.7660 212° Southwest 467 537 36,000  Level FlightAware ADS-B
Sun 11:20:12 PM 39.5195 -102.8130 213° Southwest 468 539 36,000  Level FlightAware ADS-B
Sun 11:20:42 PM 39.4643 -102.8590 213° Southwest 469 540 36,000 -100 Level FlightAware ADS-B
Sun 11:21:12 PM 39.4093 -102.9040 212° Southwest 470 541 35,900 -136 Descending FlightAware ADS-B
Sun 11:21:26 PM 39.3851 -102.9250 214° Southwest 468 539 35,900 261 Level FlightAware ADS-B
Sun 11:21:35 PM 39.3682 -102.9420 218° Southwest 466 536 36,000 240 Climbing FlightAware ADS-B
Sun 11:21:51 PM 39.3441 -102.9700 222° Southwest 461 531 36,000  Level FlightAware ADS-B
Sun 11:22:02 PM 39.3275 -102.9930 227° Southwest 458 527 36,000  Level FlightAware ADS-B
Sun 11:22:32 PM 39.2881 -103.0580 232° Southwest 455 524 36,000  Level FlightAware ADS-B
Sun 11:23:03 PM 39.2487 -103.1230 232° Southwest 454 522 36,000  Level FlightAware ADS-B
Sun 11:23:33 PM 39.2094 -103.1880 232° Southwest 453 521 36,000  Level FlightAware ADS-B
Sun 11:24:04 PM 39.1700 -103.2540 232° Southwest 454 522 36,000  Level FlightAware ADS-B
Sun 11:24:34 PM 39.1310 -103.3190 232° Southwest 454 522 36,000  Level FlightAware ADS-B
Sun 11:25:05 PM 39.0918 -103.3830 232° Southwest 455 524 36,000  Level FlightAware ADS-B
Sun 11:25:36 PM 39.0516 -103.4500 232° Southwest 456 525 36,000  Level FlightAware ADS-B
Sun 11:26:06 PM 39.0126 -103.5140 232° Southwest 457 526 36,000  Level FlightAware ADS-B
Sun 11:26:37 PM 38.9726 -103.5800 232° Southwest 457 526 36,000  Level FlightAware ADS-B
Sun 11:27:07 PM 38.9330 -103.6450 232° Southwest 458 527 36,000  Level FlightAware ADS-B
Sun 11:27:37 PM 38.8929 -103.7100 232° Southwest 459 528 36,000  Level FlightAware ADS-B
Sun 11:28:10 PM 38.8502 -103.7800 232° Southwest 459 528 36,000  Level FlightAware ADS-B
Sun 11:28:40 PM 38.8107 -103.8440 232° Southwest 457 526 36,000  Level FlightAware ADS-B
Sun 11:29:11 PM 38.7710 -103.9090 232° Southwest 456 525 36,000  Level FlightAware ADS-B
Sun 11:29:41 PM 38.7314 -103.9740 232° Southwest 454 522 36,000  Level FlightAware ADS-B
Sun 11:30:10 PM 38.6942 -104.0340 232° Southwest 456 525 36,000  Level FlightAware ADS-B
Sun 11:30:41 PM 38.6536 -104.1000 232° Southwest 454 522 36,000  Level FlightAware ADS-B
Sun 11:31:12 PM 38.6135 -104.1640 231° Southwest 444 511 36,000  Level FlightAware ADS-B
Sun 11:31:42 PM 38.5756 -104.2250 232° Southwest 434 499 36,000  Level FlightAware ADS-B
Sun 11:32:14 PM 38.5358 -104.2890 232° Southwest 430 495 36,000  Level FlightAware ADS-B
Sun 11:32:44 PM 38.4986 -104.3490 232° Southwest 429 494 36,000  Level FlightAware ADS-B
Sun 11:33:14 PM 38.4612 -104.4090 231° Southwest 426 490 36,000  Level FlightAware ADS-B
Sun 11:33:45 PM 38.4232 -104.4700 232° Southwest 424 488 36,000  Level FlightAware ADS-B
Sun 11:34:19 PM 38.3821 -104.5360 232° Southwest 423 487 36,000  Level FlightAware ADS-B
Sun 11:34:53 PM 38.3401 -104.6020 231° Southwest 422 486 36,000  Level FlightAware ADS-B
Sun 11:35:38 PM 38.2857 -104.6890 231° Southwest 420 483 36,000  Level FlightAware ADS-B
Sun 11:36:11 PM 38.2466 -104.7510 231° Southwest 418 481 36,000  Level FlightAware ADS-B
Sun 11:36:41 PM 38.2093 -104.8100 231° Southwest 417 480 36,000  Level FlightAware ADS-B
Sun 11:37:12 PM 38.1724 -104.8680 231° Southwest 415 478 36,000  Level FlightAware ADS-B
Sun 11:37:44 PM 38.1342 -104.9280 231° Southwest 415 478 36,000  Level FlightAware ADS-B
Sun 11:38:15 PM 38.0963 -104.9880 231° Southwest 415 478 36,000  Level FlightAware ADS-B
Sun 11:38:46 PM 38.0595 -105.0460 231° Southwest 416 479 36,000  Level FlightAware ADS-B
Sun 11:39:16 PM 38.0228 -105.1040 231° Southwest 419 482 36,000  Level FlightAware ADS-B
Sun 11:39:46 PM 37.9857 -105.1620 231° Southwest 420 483 36,000  Level FlightAware ADS-B
Sun 11:40:16 PM 37.9489 -105.2190 231° Southwest 420 483 36,000  Level FlightAware ADS-B
Sun 11:40:47 PM 37.9111 -105.2780 231° Southwest 421 484 36,000  Level FlightAware ADS-B
Sun 11:41:17 PM 37.8742 -105.3360 231° Southwest 421 484 36,000  Level FlightAware ADS-B
Sun 11:41:48 PM 37.8370 -105.3940 231° Southwest 424 488 36,000  Level FlightAware ADS-B
Sun 11:42:18 PM 37.7991 -105.4530 231° Southwest 428 493 36,000  Level FlightAware ADS-B
Sun 11:42:48 PM 37.7613 -105.5110 231° Southwest 432 497 36,000  Level FlightAware ADS-B
Sun 11:43:18 PM 37.7230 -105.5700 231° Southwest 431 496 36,000  Level FlightAware ADS-B
Sun 11:43:49 PM 37.6847 -105.6290 231° Southwest 433 498 36,000  Level FlightAware ADS-B
Sun 11:44:19 PM 37.6461 -105.6890 231° Southwest 435 501 36,000  Level FlightAware ADS-B
Sun 11:44:49 PM 37.6073 -105.7480 230° Southwest 437 503 36,000  Level FlightAware ADS-B
Sun 11:45:19 PM 37.5684 -105.8080 231° Southwest 438 504 36,000  Level FlightAware ADS-B
Sun 11:45:50 PM 37.5292 -105.8680 231° Southwest 438 504 36,000  Level FlightAware ADS-B
Sun 11:46:23 PM 37.4868 -105.9330 231° Southwest 435 501 36,000  Level FlightAware ADS-B
Sun 11:46:54 PM 37.4478 -105.9930 231° Southwest 433 498 36,000  Level FlightAware ADS-B
Sun 11:47:31 PM 37.3995 -106.0660 230° Southwest 433 498 36,000  Level FlightAware ADS-B
Sun 11:48:36 PM 37.3370 -106.1590 230° Southwest 433 498 36,000  Level FlightAware ADS-B
Sun 11:49:13 PM 37.2960 -106.2200 230° Southwest 433 498 36,000  Level FlightAware ADS-B
Sun 11:50:02 PM 37.2430 -106.3000 230° Southwest 433 498 36,000  Level FlightAware ADS-B
Sun 11:50:38 PM 37.2030 -106.3590 230° Southwest 433 498 36,000  Level FlightAware ADS-B
Sun 11:51:26 PM 37.1510 -106.4380 230° Southwest 433 498 36,000 955 Level FlightAware ADS-B
Sun 11:52:06 PM 37.0460 -106.6000 231° Southwest 439 505 37,400 1,350 Climbing FlightAware ADS-B
Sun 11:52:46 PM 37.0010 -106.6830 236° Southwest 437 503 37,800 424 Climbing FlightAware ADS-B
Sun 11:53:31 PM 36.9500 -106.7780 236° Southwest 442 509 38,000 141 Climbing FlightAware ADS-B
Sun 11:54:11 PM 36.9040 -106.8650 237° Southwest 444 511 38,000  Level FlightAware ADS-B
Sun 11:54:53 PM 36.8580 -106.9500 236° Southwest 443 510 38,000  Level FlightAware ADS-B
Sun 11:55:39 PM 36.8070 -107.0430 236° Southwest 442 509 38,000  Level FlightAware ADS-B
Sun 11:56:15 PM 36.7720 -107.1080 236° Southwest 442 509 38,000  Level FlightAware ADS-B
Sun 11:57:03 PM 36.7260 -107.1940 236° Southwest 442 509 38,000  Level FlightAware ADS-B
Sun 11:57:39 PM 36.6910 -107.2590 236° Southwest 442 509 38,000  Level FlightAware ADS-B
Sun 11:58:27 PM 36.5820 -107.3790 221° Southwest 443 510 38,000  Level FlightAware ADS-B
Sun 11:59:00 PM 36.5430 -107.4320 228° Southwest 444 511 38,000  Level FlightAware ADS-B
Sun 11:59:48 PM 36.4870 -107.5090 228° Southwest 444 511 38,000  Level FlightAware ADS-B
Mon 12:00:24 AM 36.4450 -107.5670 228° Southwest 444 511 38,000  Level FlightAware ADS-B
Mon 12:01:12 AM 36.3890 -107.6450 228° Southwest 444 511 38,000  Level FlightAware ADS-B
Mon 12:01:48 AM 36.3470 -107.7030 228° Southwest 444 511 38,000  Level FlightAware ADS-B
Mon 12:02:30 AM 36.2450 -107.8410 228° Southwest 450 518 38,000  Level FlightAware ADS-B
Mon 12:03:20 AM 36.1840 -107.9210 227° Southwest 450 518 38,000  Level FlightAware ADS-B
Mon 12:03:58 AM 36.1390 -107.9820 228° Southwest 450 518 38,000  Level FlightAware ADS-B
Mon 12:04:44 AM 36.0830 -108.0560 227° Southwest 450 518 38,000  Level FlightAware ADS-B
Mon 12:05:36 AM 35.9810 -108.1990 229° Southwest 38,000  Level FlightAware ADS-B
Mon 12:06:42 AM 35.8870 -108.3250 227° Southwest 445 512 38,000  Level FlightAware ADS-B
Mon 12:07:30 AM 35.8230 -108.4110 227° Southwest 427 491 38,000  Level FlightAware ADS-B
Mon 12:08:06 AM 35.7730 -108.4770 227° Southwest 433 498 38,000  Level FlightAware ADS-B
Mon 12:08:54 AM 35.7070 -108.5660 228° Southwest 443 510 38,000  Level FlightAware ADS-B
Mon 12:09:40 AM 35.6510 -108.6390 227° Southwest 444 511 38,000  Level FlightAware ADS-B
Mon 12:10:16 AM 35.6090 -108.6960 228° Southwest 444 511 38,000  Level FlightAware ADS-B
Mon 12:11:09 AM 35.5450 -108.7790 227° Southwest 444 511 38,000  Level FlightAware ADS-B
Mon 12:11:57 AM 35.4880 -108.8540 227° Southwest 444 511 38,000  Level FlightAware ADS-B
Mon 12:12:33 AM 35.4450 -108.9110 227° Southwest 444 511 38,000  Level FlightAware ADS-B
Mon 12:13:19 AM 35.3340 -109.0560 227° Southwest 447 514 38,000  Level FlightAware ADS-B
Mon 12:14:03 AM 35.2700 -109.1390 227° Southwest 444 511 38,000  Level FlightAware ADS-B
Mon 12:14:44 AM 35.2130 -109.2120 226° Southwest 444 511 38,000 -368 Level FlightAware ADS-B
Mon 12:15:57 AM 35.1170 -109.3360 227° Southwest 444 511 37,300 -569 Descending FlightAware ADS-B
Mon 12:18:15 AM 34.9080 -109.6020 226° Southwest 459 528 36,000 -429 Descending FlightAware ADS-B
Mon 12:18:59 AM 34.8420 -109.6860 226° Southwest 461 531 36,000  Level FlightAware ADS-B
Mon 12:19:33 AM 34.7920 -109.7490 226° Southwest 458 527 36,000  Level FlightAware ADS-B
Mon 12:20:23 AM 34.7230 -109.8490 230° Southwest 453 521 36,000  Level FlightAware ADS-B
Mon 12:21:04 AM 34.6800 -109.9350 239° Southwest 450 518 36,000 -143 Level FlightAware ADS-B
Mon 12:21:47 AM 34.6410 -110.0370 245° Southwest 454 522 35,800 -1,663 Descending FlightAware ADS-B
Mon 12:22:27 AM 34.6050 -110.1310 245° Southwest 471 542 33,700 -3,106 Descending FlightAware ADS-B
Mon 12:23:12 AM 34.5660 -110.2380 246° West 468 539 31,400 -2,643 Descending FlightAware ADS-B
Mon 12:23:51 AM 34.5300 -110.3320 245° Southwest 460 529 30,000 -1,590 Descending FlightAware ADS-B
Mon 12:24:35 AM 34.4930 -110.4310 246° West 431 496 29,200 -1,500 Descending FlightAware ADS-B
Mon 12:25:15 AM 34.4590 -110.5190 245° Southwest 425 489 27,900 -1,929 Descending FlightAware ADS-B
Mon 12:25:59 AM 34.4240 -110.6110 245° Southwest 417 480 26,500 -1,884 Descending FlightAware ADS-B
Mon 12:26:41 AM 34.3900 -110.7010 245° Southwest 408 470 25,200 -1,829 Descending FlightAware ADS-B
Mon 12:27:21 AM 34.3580 -110.7820 244° Southwest 402 463 24,000 -1,755 Descending FlightAware ADS-B
Mon 12:28:27 AM 34.2870 -110.8810 229° Southwest 399 459 22,100 -1,929 Descending FlightAware ADS-B
Mon 12:29:13 AM 34.2200 -110.9690 227° Southwest 391 450 20,400 -1,862 Descending FlightAware ADS-B
Mon 12:29:54 AM 34.1790 -111.0220 227° Southwest 388 447 19,400 -1,682 Descending FlightAware ADS-B
Mon 12:31:00 AM 34.1010 -111.1210 226° Southwest 378 435 17,400 -1,838 Descending FlightAware ADS-B
Mon 12:31:45 AM 34.0450 -111.1930 227° Southwest 370 426 16,000 -1,756 Descending FlightAware ADS-B
Mon 12:32:22 AM 34.0030 -111.2470 227° Southwest 363 418 15,000 -1,357 Descending FlightAware ADS-B
Mon 12:33:09 AM 33.9510 -111.3140 227° Southwest 341 392 14,100 -1,483 Descending FlightAware ADS-B
Mon 12:33:51 AM 33.9070 -111.3700 227° Southwest 327 376 12,800 -1,950 Descending FlightAware ADS-B
Mon 12:34:29 AM 33.8620 -111.4200 223° Southwest 328 377 11,500 -1,778 Descending FlightAware ADS-B
Mon 12:35:12 AM 33.8100 -111.4640 215° Southwest 321 369 10,400 -1,391 Descending FlightAware ADS-B
Mon 12:35:38 AM 33.7810 -111.4890 216° Southwest 313 360 9,900 -1,448 Descending FlightAware ADS-B
Mon 12:36:10 AM 33.7410 -111.5240 216° Southwest 309 356 9,000 -1,655 Descending FlightAware ADS-B
Mon 12:36:36 AM 33.7110 -111.5500 216° Southwest 307 353 8,300 -1,091 Descending FlightAware ADS-B
Mon 12:36:54 AM 33.6930 -111.5650 215° Southwest 296 341 8,200 -143 Descending FlightAware ADS-B
Mon 12:37:18 AM 33.6650 -111.5880 214° Southwest 268 308 8,200  Level FlightAware ADS-B
Mon 12:37:49 AM 33.6320 -111.5970 193° South 251 289 8,200 -105 Level FlightAware ADS-B
Mon 12:38:15 AM 33.6030 -111.6040 191° South 245 282 8,100 -610 Descending FlightAware ADS-B
Mon 12:38:48 AM 33.5650 -111.6120 190° South 238 274 7,600 -1,220 Descending FlightAware ADS-B
Mon 12:39:14 AM 33.5380 -111.6180 190° South 230 265 6,900 -1,680 Descending FlightAware ADS-B
Mon 12:39:38 AM 33.5190 -111.6380 221° Southwest 231 266 6,200 -1,552 Descending FlightAware ADS-B
Mon 12:40:12 AM 33.5010 -111.6760 240° Southwest 218 251 5,400 -1,364 Descending FlightAware ADS-B
Mon 12:40:22 AM 33.4970 -111.6840 239° Southwest 218 251 5,200 -1,412 Descending FlightAware ADS-B
Mon 12:40:46 AM 33.4850 -111.7110 242° Southwest 218 251 4,600 -1,017 Descending FlightAware ADS-B
Mon 12:41:21 AM 33.4680 -111.7460 240° Southwest 211 243 4,200 -400 Descending FlightAware ADS-B
Mon 12:41:46 AM 33.4560 -111.7710 240° Southwest 192 221 4,200  Level FlightAware ADS-B
Mon 12:42:10 AM 33.4460 -111.7930 241° Southwest 179 206 4,200 -154 Level FlightAware ADS-B
Mon 12:42:25 AM 33.4430 -111.8050 253° West 181 208 4,100 -698 Descending FlightAware ADS-B
Mon 12:42:53 AM 33.4410 -111.8350 265° West 178 205 3,700 -889 Descending FlightAware ADS-B
Mon 12:43:19 AM 33.4410 -111.8590 270° West 179 206 3,300 -880 Descending FlightAware ADS-B
Mon 12:44:08 AM 33.4410 -111.9070 270° West 143 165 2,600 -871 Descending FlightAware ADS-B
Mon 12:44:21 AM 33.4410 -111.9180 270° West 149 171 2,400 -811 Descending FlightAware ADS-B
Mon 12:44:45 AM 33.4410 -111.9380 270° West 149 171 2,100 -651 Descending FlightAware ADS-B
Mon 12:45:44 AM 33.4410 -111.9850 270° West 146 168 1,500 -610 Descending FlightAware ADS-B
Mon 12:49:43 AM 33.4370 -112.0030 255° West 12 14 -377 Descending FlightAware ADS-B
Mon 12:54:00 AM 33.4333 -112.0000 90° East  Level FlightAware Approximate

Login

Don't have an account? Register now (free) for customized features, flight alerts, and more!